Portada
METAR-TAF:

METAR-TAF

Aeroports :

Irkutsk, Rússia

latitud: 52-16N, longitud: 104-19E, altitud: 513 m

Observació

L'informe es va fer fa 15 minuts, a les 09:30 UTC
Vent 8 kt del Sud
Temperatura 8°C
Humitat 49%
Pressió 1011 hPa
Visibilitat 10 km o més
sense núvols per sota de 1500 mi sense presència de cumulonimbus.

METAR: UIII 220930Z 18004MPS CAVOK 08/M02 Q1011 R12/190055 NOSIG RMK QFE716/0955

Hora: 17:45 (09:45 UTC)

Pronòstic

L'informe es va fer fa 1 hora i 45 minuts, a les 08:00 UTC
Pronòstic vàlid del 22 a les 09 UTC al 23 a les 09 UTC
Vent 12 kt del Sud-Est
Visibilitat 10 km o més
sense núvols per sota de 1500 mi sense presència de cumulonimbus.

TAF: UIII 220800Z 2209/2309 14006MPS CAVOK

Observacions i pronòstics meteorològics de més de 4000 aeroports (METAR i TAF).

Les estacions disponibles són els punts grocs i vermells al mapa.

Posi el ratolí al punt desitjat per veure el nom de l'estació.

Feu clic per veure les observacions i els pronòstics meteorològics.

Per canviar el mapa: feu clic els botons verds amb una creu de color negre per apropar; al botó verd amb un guió per allunyar la imatge; o en les fletxes verdes per a mapes adjacents.


METAR-TAF: